Time;durP1;ratioP1;P1;durP2;ratioP2;P2;SDS_P1;SDS_P2;PMS_P1;PMS_P2;Temp;Humidity;BMP_temperature;BMP_pressure;BME280_temperature;BME280_humidity;BME280_pressure;Samples;Min_cycle;Max_cycle;Signal;HPM_P1;HPM_P2
2022/12/24 00:01:00;;;;;;;53.33;27.65;;;;;;;14.02;59.95;102228.09;5070042;28;20089;-60
2022/12/24 00:03:26;;;;;;;53.80;27.55;;;;;;;14.22;59.25;102234.47;5074519;28;20100;-60
2022/12/24 00:05:52;;;;;;;53.10;26.55;;;;;;;13.91;59.69;102251.81;5075097;28;20024;-60
2022/12/24 00:08:19;;;;;;;46.35;24.90;;;;;;;13.97;59.41;102248.34;5056480;28;20086;-62
2022/12/24 00:10:49;;;;;;;51.03;26.55;;;;;;;13.93;59.71;102251.59;5065907;28;20025;-62
2022/12/24 00:13:16;;;;;;;54.28;27.02;;;;;;;13.89;60.07;102253.03;5054458;28;20032;-62
2022/12/24 00:15:42;;;;;;;53.15;26.77;;;;;;;13.59;60.65;102244.25;5054496;28;20032;-62
2022/12/24 00:18:08;;;;;;;55.85;26.58;;;;;;;13.49;61.41;102244.56;5054317;28;20029;-62
2022/12/24 00:20:34;;;;;;;58.78;28.23;;;;;;;13.49;60.89;102244.56;5054376;28;20055;-62
2022/12/24 00:23:01;;;;;;;50.97;26.48;;;;;;;13.40;61.27;102256.47;5054440;28;20382;-62
2022/12/24 00:25:27;;;;;;;49.92;25.42;;;;;;;13.43;61.64;102256.91;5053898;28;20082;-61
2022/12/24 00:27:53;;;;;;;43.70;25.95;;;;;;;13.38;61.48;102262.06;5068067;28;20080;-61
2022/12/24 00:30:19;;;;;;;47.72;25.77;;;;;;;13.23;61.84;102269.31;5064386;28;20032;-61
2022/12/24 00:32:45;;;;;;;44.83;24.45;;;;;;;13.30;61.79;102272.91;5053974;28;20441;-61
2022/12/24 00:35:12;;;;;;;44.53;23.83;;;;;;;13.48;60.70;102276.00;5065726;28;20036;-61
2022/12/24 00:37:38;;;;;;;45.78;24.08;;;;;;;13.40;61.00;102268.06;5055830;28;20502;-62
2022/12/24 00:40:05;;;;;;;44.97;23.85;;;;;;;13.05;62.19;102275.06;5072314;28;20020;-63
2022/12/24 00:42:31;;;;;;;43.13;22.50;;;;;;;13.39;60.64;102284.41;5073988;28;20025;-61
2022/12/24 00:44:57;;;;;;;48.60;24.20;;;;;;;13.17;61.15;102284.31;5068516;28;20566;-63
2022/12/24 00:47:24;;;;;;;44.40;23.77;;;;;;;12.80;62.08;102287.94;5069575;28;20034;-62
2022/12/24 00:49:50;;;;;;;48.38;25.13;;;;;;;12.62;62.42;102290.19;5061796;28;20036;-62
2022/12/24 00:52:16;;;;;;;45.97;23.73;;;;;;;12.66;62.45;102286.94;5058328;28;20052;-63
2022/12/24 00:54:42;;;;;;;47.17;24.77;;;;;;;12.53;62.47;102293.94;5056232;28;20391;-61
2022/12/24 00:57:09;;;;;;;44.28;24.60;;;;;;;12.58;62.73;102299.59;5053515;28;20397;-61
2022/12/24 00:59:35;;;;;;;51.60;25.33;;;;;;;12.42;62.79;102311.34;5053158;28;20036;-63
2022/12/24 01:02:01;;;;;;;50.35;26.75;;;;;;;12.54;62.55;102309.88;5066923;28;20032;-62
2022/12/24 01:07:13;;;;;;;45.67;25.10;;;;;;;12.16;63.67;102311.75;5073623;28;20097;-62
2022/12/24 01:09:39;;;;;;;50.58;27.50;;;;;;;12.26;63.37;102323.06;5070004;28;20029;-63
2022/12/24 01:12:05;;;;;;;52.97;27.25;;;;;;;12.43;62.97;102331.81;5063288;28;20099;-63
2022/12/24 01:14:31;;;;;;;50.95;25.75;;;;;;;12.21;63.83;102341.56;5073437;28;20053;-63
2022/12/24 01:16:57;;;;;;;54.35;28.50;;;;;;;12.01;64.35;102351.13;5073515;28;20525;-63
2022/12/24 01:19:24;;;;;;;54.58;28.20;;;;;;;12.00;64.54;102349.47;5073219;28;20173;-63
2022/12/24 01:24:18;;;;;;;60.45;29.95;;;;;;;11.64;65.95;102361.53;5051906;28;20465;-63
2022/12/24 01:26:44;;;;;;;52.88;28.70;;;;;;;11.65;65.86;102362.34;5053096;28;20061;-64
2022/12/24 01:29:10;;;;;;;51.65;28.33;;;;;;;11.68;65.94;102361.19;5051395;28;20044;-63
2022/12/24 01:31:37;;;;;;;56.70;29.30;;;;;;;11.45;66.62;102378.06;5053611;28;20025;-63
2022/12/24 01:34:04;;;;;;;56.20;29.38;;;;;;;11.58;66.29;102382.84;5053254;28;20106;-63
2022/12/24 01:36:30;;;;;;;59.40;30.23;;;;;;;11.23;67.66;102384.16;5052685;28;20390;-64
2022/12/24 01:38:56;;;;;;;60.53;29.38;;;;;;;11.15;68.03;102385.00;5052981;28;20025;-64
2022/12/24 01:44:25;;;;;;;65.05;29.52;;;;;;;11.36;67.34;102406.72;5032690;28;20387;-64
2022/12/24 01:47:02;;;;;;;53.85;28.38;;;;;;;11.37;67.16;102411.06;5046022;28;20051;-64
2022/12/24 01:49:29;;;;;;;55.00;28.40;;;;;;;11.43;67.03;102406.88;5048275;28;20036;-64
2022/12/24 01:52:04;;;;;;;52.50;29.98;;;;;;;11.35;67.53;102410.44;5052578;28;20478;-64
2022/12/24 01:54:47;;;;;;;58.60;28.83;;;;;;;11.46;67.18;102411.06;5052960;28;20032;-64
2022/12/24 01:57:21;;;;;;;57.13;28.05;;;;;;;11.31;67.97;102416.31;5048567;28;20029;-63
2022/12/24 01:59:52;;;;;;;55.85;28.75;;;;;;;11.25;67.73;102414.31;5031951;28;20029;-64
2022/12/24 02:02:20;;;;;;;55.10;28.85;;;;;;;11.04;68.48;102417.53;5036370;28;20044;-64
2022/12/24 02:05:14;;;;;;;56.90;28.00;;;;;;;11.02;69.13;102415.03;5033592;28;20032;-64
2022/12/24 02:07:42;;;;;;;53.97;27.98;;;;;;;11.07;68.49;102419.88;5031239;28;20029;-64
2022/12/24 02:10:12;;;;;;;50.83;26.70;;;;;;;11.27;68.33;102414.97;5046602;28;20029;-64
2022/12/24 02:12:40;;;;;;;52.13;27.55;;;;;;;11.28;67.89;102419.34;5052028;28;20025;-65
2022/12/24 02:15:09;;;;;;;57.10;27.98;;;;;;;11.16;68.35;102426.91;5051684;28;20052;-65
2022/12/24 02:17:40;;;;;;;52.85;28.63;;;;;;;10.93;69.16;102425.94;5034383;28;20060;-66
2022/12/24 02:20:07;;;;;;;49.72;26.67;;;;;;;11.11;68.83;102415.88;5032143;28;20461;-65
2022/12/24 02:23:12;;;;;;;59.10;28.20;;;;;;;10.87;69.48;102423.94;5032078;28;20119;-64
2022/12/24 02:25:50;;;;;;;54.28;29.00;;;;;;;11.04;68.96;102414.84;5033157;28;20030;-63
2022/12/24 02:28:45;;;;;;;50.97;27.38;;;;;;;11.06;68.97;102418.22;5051466;28;20434;-64
2022/12/24 02:31:31;;;;;;;46.97;25.70;;;;;;;11.02;69.22;102420.38;5051957;28;20425;-64
2022/12/24 02:34:08;;;;;;;48.75;26.35;;;;;;;11.12;68.63;102433.63;5050588;28;20046;-65
2022/12/24 02:36:44;;;;;;;49.47;26.98;;;;;;;10.99;68.95;102433.28;5047642;28;20029;-63
2022/12/24 02:39:19;;;;;;;50.63;26.48;;;;;;;11.05;68.92;102441.50;5038340;28;20021;-65
2022/12/24 02:42:07;;;;;;;56.13;26.05;;;;;;;11.28;68.10;102438.09;5051993;28;20054;-65
2022/12/24 02:44:59;;;;;;;47.60;25.95;;;;;;;11.21;68.38;102445.97;5051856;28;20029;-63
2022/12/24 02:47:27;;;;;;;45.72;25.58;;;;;;;11.34;68.04;102434.72;5051697;28;20086;-65
2022/12/24 02:49:54;;;;;;;56.20;27.60;;;;;;;11.17;68.53;102444.66;5033866;28;20068;-66
2022/12/24 02:52:28;;;;;;;46.25;25.85;;;;;;;11.34;67.81;102442.78;5030821;28;20033;-66
2022/12/24 02:54:55;;;;;;;52.63;27.87;;;;;;;11.15;68.53;102438.63;5032146;28;20108;-65
2022/12/24 02:57:47;;;;;;;50.45;26.02;;;;;;;10.91;69.48;102435.97;5031503;28;20100;-65
2022/12/24 03:00:18;;;;;;;52.00;25.63;;;;;;;10.84;69.52;102438.50;5039793;28;20068;-65
2022/12/24 03:02:52;;;;;;;46.22;24.58;;;;;;;10.96;69.59;102442.50;5051732;28;20025;-64
2022/12/24 03:05:40;;;;;;;48.30;24.45;;;;;;;11.02;68.96;102449.03;5051808;28;20029;-64
2022/12/24 03:08:18;;;;;;;46.70;23.90;;;;;;;10.99;69.36;102452.91;5049455;28;20040;-65
2022/12/24 03:11:01;;;;;;;47.13;24.40;;;;;;;10.87;69.54;102448.03;5051653;28;20029;-66
2022/12/24 03:13:28;;;;;;;48.00;25.30;;;;;;;10.97;69.11;102448.69;5018492;28;20437;-65
2022/12/24 03:15:54;;;;;;;44.00;24.15;;;;;;;11.12;68.92;102443.50;5037499;28;20025;-64
2022/12/24 03:18:24;;;;;;;43.33;23.08;;;;;;;11.08;68.81;102446.50;5044838;28;20290;-64
2022/12/24 03:21:15;;;;;;;45.53;24.13;;;;;;;11.02;69.06;102441.00;5049783;28;20025;-64
2022/12/24 03:23:41;;;;;;;41.30;22.92;;;;;;;11.23;68.28;102448.50;5051115;28;20494;-64
2022/12/24 03:26:11;;;;;;;48.90;26.40;;;;;;;10.96;69.16;102452.41;5053106;28;20033;-65
2022/12/24 03:28:40;;;;;;;47.88;24.35;;;;;;;11.17;68.83;102455.38;5055085;28;20384;-64
2022/12/24 03:31:08;;;;;;;45.85;24.38;;;;;;;10.96;69.01;102455.06;5055561;28;20079;-64
2022/12/24 03:33:35;;;;;;;41.65;23.05;;;;;;;11.12;68.67;102463.09;5052814;28;20029;-64
2022/12/24 03:36:01;;;;;;;42.88;22.70;;;;;;;11.01;68.81;102463.44;5047033;28;20527;-64
2022/12/24 03:38:28;;;;;;;50.75;26.52;;;;;;;11.12;68.74;102457.72;5050723;28;20032;-64
2022/12/24 03:40:54;;;;;;;51.90;26.52;;;;;;;10.82;69.81;102470.78;5035395;28;20044;-64
2022/12/24 03:43:20;;;;;;;45.03;25.27;;;;;;;10.67;70.43;102469.81;5035443;28;20029;-64
2022/12/24 03:45:47;;;;;;;48.70;25.55;;;;;;;10.72;70.14;102467.47;5035445;28;20025;-64
2022/12/24 03:48:13;;;;;;;53.85;26.40;;;;;;;10.53;70.59;102476.66;5034993;28;20025;-64
2022/12/24 03:50:39;;;;;;;46.80;26.60;;;;;;;10.41;71.50;102480.66;5039509;28;20032;-64
2022/12/24 03:53:05;;;;;;;50.72;27.48;;;;;;;10.26;71.96;102472.41;5035624;28;20029;-64
2022/12/24 03:55:32;;;;;;;52.75;27.83;;;;;;;10.36;72.19;102479.47;5035158;28;20109;-64
2022/12/24 03:57:58;;;;;;;50.88;27.45;;;;;;;10.32;72.01;102479.78;5034991;28;20033;-64
2022/12/24 04:00:24;;;;;;;47.05;24.35;;;;;;;10.25;72.24;102475.28;5047023;28;20082;-65
2022/12/24 04:02:50;;;;;;;50.33;25.50;;;;;;;10.26;72.47;102476.94;5054760;28;20021;-64
2022/12/24 04:05:19;;;;;;;54.30;27.42;;;;;;;10.55;71.44;102482.69;5054907;28;20021;-64
2022/12/24 04:07:45;;;;;;;50.72;24.70;;;;;;;10.55;71.38;102474.66;5054660;28;20029;-64
2022/12/24 04:10:13;;;;;;;43.00;25.23;;;;;;;10.27;72.22;102490.19;5054647;28;20103;-64
2022/12/24 04:12:39;;;;;;;45.20;26.08;;;;;;;10.27;72.44;102500.88;5054651;28;20033;-64
2022/12/24 04:15:06;;;;;;;45.33;25.92;;;;;;;10.31;72.23;102486.16;5054799;28;20021;-64
2022/12/24 04:17:33;;;;;;;49.28;26.38;;;;;;;10.28;72.29;102486.50;5054475;28;20112;-65
2022/12/24 04:19:59;;;;;;;55.03;27.10;;;;;;;10.14;72.40;102484.41;5037601;28;20037;-64
2022/12/24 04:22:25;;;;;;;60.92;28.90;;;;;;;10.10;72.84;102483.03;5034664;28;20033;-64
2022/12/24 04:24:52;;;;;;;56.63;28.23;;;;;;;10.21;72.59;102485.41;5038747;28;20486;-64
2022/12/24 04:27:18;;;;;;;58.80;27.65;;;;;;;9.91;73.64;102477.97;5054141;28;20025;-65
2022/12/24 04:29:44;;;;;;;51.92;27.70;;;;;;;9.89;73.48;102474.63;5047552;28;20041;-64
2022/12/24 04:32:10;;;;;;;50.88;26.05;;;;;;;9.77;73.76;102474.06;5034678;28;20112;-64
2022/12/24 04:34:37;;;;;;;52.63;28.33;;;;;;;10.05;73.08;102458.66;5033096;28;20452;-64
2022/12/24 04:37:03;;;;;;;46.13;25.60;;;;;;;9.88;73.38;102456.91;5034007;28;20064;-64
2022/12/24 04:39:30;;;;;;;47.90;24.77;;;;;;;9.89;73.34;102453.25;5033775;28;20029;-64
2022/12/24 04:41:56;;;;;;;52.45;26.10;;;;;;;9.90;72.94;102455.75;5038908;28;20028;-64
2022/12/24 04:44:22;;;;;;;46.55;25.95;;;;;;;9.83;73.22;102452.06;5054179;28;20021;-64
2022/12/24 04:46:48;;;;;;;45.15;25.38;;;;;;;9.84;73.23;102444.88;5039407;28;20064;-64
2022/12/24 04:49:15;;;;;;;46.40;26.10;;;;;;;9.83;72.75;102432.47;5034023;28;20026;-64
2022/12/24 04:51:41;;;;;;;54.70;27.75;;;;;;;9.89;72.58;102434.53;5034080;28;20029;-64
2022/12/24 04:54:07;;;;;;;48.78;25.40;;;;;;;9.83;72.96;102435.16;5034022;28;20014;-64
2022/12/24 04:56:33;;;;;;;41.25;23.67;;;;;;;9.88;72.88;102424.78;5033729;28;20079;-64
2022/12/24 04:59:01;;;;;;;39.97;23.25;;;;;;;9.79;73.20;102421.28;5039159;28;20120;-64
2022/12/24 05:01:30;;;;;;;40.05;22.92;;;;;;;9.90;72.71;102415.63;5053850;28;20083;-64
2022/12/24 05:03:56;;;;;;;39.30;23.05;;;;;;;9.86;73.17;102410.75;5053782;28;20482;-64
2022/12/24 05:06:26;;;;;;;35.92;20.23;;;;;;;9.89;72.87;102405.09;5053584;28;20387;-64
2022/12/24 05:08:57;;;;;;;40.42;21.58;;;;;;;9.92;73.38;102402.09;5053431;28;20070;-64
2022/12/24 05:11:24;;;;;;;35.42;19.88;;;;;;;9.93;73.88;102407.25;5053616;28;20061;-64
2022/12/24 05:13:50;;;;;;;38.70;21.90;;;;;;;9.99;73.60;102395.06;5053610;28;20017;-64
2022/12/24 05:16:18;;;;;;;37.08;21.60;;;;;;;9.76;75.13;102400.19;5051707;28;20035;-64
2022/12/24 05:18:45;;;;;;;36.53;19.90;;;;;;;9.73;75.60;102396.03;5035411;28;20034;-64
2022/12/24 05:21:14;;;;;;;33.53;20.52;;;;;;;10.00;74.55;102396.78;5034280;28;20025;-64
2022/12/24 05:26:36;;;;;;;38.17;21.85;;;;;;;10.08;74.60;102410.16;5035169;28;20041;-64
2022/12/24 05:29:04;;;;;;;34.00;19.67;;;;;;;9.91;75.05;102408.44;5053145;28;20021;-64
2022/12/24 05:31:32;;;;;;;33.97;20.25;;;;;;;9.86;75.11;102413.44;5051953;28;20028;-64
2022/12/24 05:34:00;;;;;;;32.38;18.63;;;;;;;9.86;75.42;102410.75;5052908;28;20537;-64
2022/12/24 05:36:26;;;;;;;34.90;19.65;;;;;;;9.90;75.30;102407.59;5036306;28;20079;-64
2022/12/24 05:38:53;;;;;;;33.67;18.25;;;;;;;9.94;74.97;102408.13;5053137;28;20032;-64
2022/12/24 05:41:19;;;;;;;33.72;19.23;;;;;;;10.21;73.67;102394.44;5051457;28;20028;-64
2022/12/24 05:43:46;;;;;;;29.17;17.13;;;;;;;10.30;73.62;102406.88;5052851;28;20158;-64
2022/12/24 05:46:14;;;;;;;30.02;16.77;;;;;;;10.18;73.75;102410.00;5052483;28;20024;-64
2022/12/24 05:48:41;;;;;;;30.27;17.83;;;;;;;10.07;73.98;102408.47;5052137;28;20032;-64
2022/12/24 05:51:09;;;;;;;28.70;18.52;;;;;;;10.15;73.60;102400.44;5051339;28;20021;-64
2022/12/24 05:53:36;;;;;;;33.95;18.35;;;;;;;10.19;73.39;102395.63;5050003;28;20044;-65
2022/12/24 05:56:08;;;;;;;32.95;19.85;;;;;;;10.35;72.63;102406.38;5034300;28;20036;-65
2022/12/24 05:58:35;;;;;;;31.50;17.30;;;;;;;10.32;72.80;102401.34;5053816;28;20021;-64
2022/12/24 06:01:03;;;;;;;34.95;18.80;;;;;;;10.34;72.48;102399.34;5051658;28;20095;-65
2022/12/24 06:03:30;;;;;;;29.77;17.63;;;;;;;10.34;72.30;102403.88;5052848;28;20059;-65
2022/12/24 06:06:01;;;;;;;29.88;17.65;;;;;;;10.44;71.61;102404.56;5051054;28;20029;-64
2022/12/24 06:08:30;;;;;;;26.33;16.50;;;;;;;10.23;72.67;102408.53;5050642;28;20056;-64
2022/12/24 06:10:58;;;;;;;22.38;15.32;;;;;;;10.18;72.81;102416.19;5052146;28;20364;-64
2022/12/24 06:13:25;;;;;;;24.13;15.75;;;;;;;10.30;72.72;102422.91;5051896;28;20033;-64
2022/12/24 06:15:59;;;;;;;28.42;16.63;;;;;;;10.36;72.52;102421.41;5051088;28;20017;-59
2022/12/24 06:18:25;;;;;;;26.92;15.77;;;;;;;10.43;72.29;102429.63;5052116;28;20025;-59
2022/12/24 06:20:53;;;;;;;25.05;15.70;;;;;;;10.38;72.23;102431.94;5052111;28;20028;-65
2022/12/24 06:23:20;;;;;;;28.65;15.95;;;;;;;10.38;72.10;102431.94;5052396;28;20062;-64
2022/12/24 06:25:47;;;;;;;29.55;16.15;;;;;;;10.34;72.54;102436.81;5049597;28;20479;-64
2022/12/24 06:28:13;;;;;;;26.73;16.58;;;;;;;10.29;72.77;102441.84;5049257;28;20103;-64
2022/12/24 06:30:40;;;;;;;29.02;18.20;;;;;;;10.53;72.03;102446.38;5051390;28;20068;-64
2022/12/24 06:33:06;;;;;;;25.85;15.60;;;;;;;10.47;71.72;102452.38;5030792;28;20466;-64
2022/12/24 06:35:33;;;;;;;31.08;18.10;;;;;;;10.42;71.85;102449.38;5049327;28;20383;-64
2022/12/24 06:38:00;;;;;;;25.38;16.42;;;;;;;10.28;72.41;102454.38;5051753;28;20032;-64
2022/12/24 06:40:27;;;;;;;28.02;17.00;;;;;;;10.26;72.61;102455.53;5051720;28;20128;-64
2022/12/24 06:42:53;;;;;;;27.23;16.65;;;;;;;10.25;72.35;102467.25;5049103;28;20078;-64
2022/12/24 06:45:19;;;;;;;24.42;15.70;;;;;;;10.26;71.96;102475.09;5051737;28;20064;-64
2022/12/24 06:47:46;;;;;;;29.60;17.45;;;;;;;10.24;71.76;102474.44;5051529;28;20025;-64
2022/12/24 06:50:12;;;;;;;27.60;17.15;;;;;;;10.22;71.77;102464.88;5051733;28;20024;-64
2022/12/24 06:52:38;;;;;;;30.30;18.60;;;;;;;10.29;71.58;102461.41;5051644;28;20111;-64
2022/12/24 06:55:05;;;;;;;28.90;17.80;;;;;;;10.36;71.06;102461.56;5051482;28;20048;-64
2022/12/24 06:57:31;;;;;;;32.35;17.90;;;;;;;10.16;71.54;102469.03;5045655;28;20486;-64
2022/12/24 06:59:58;;;;;;;29.23;17.30;;;;;;;10.05;71.78;102461.31;5051542;28;20106;-64
2022/12/24 07:02:25;;;;;;;33.58;19.08;;;;;;;10.17;72.54;102459.19;5051429;28;20027;-64
2022/12/24 07:04:51;;;;;;;35.05;21.08;;;;;;;9.78;73.67;102455.22;5051617;28;20100;-64
2022/12/24 07:07:17;;;;;;;34.55;19.42;;;;;;;9.76;73.73;102453.69;5051336;28;20029;-64
2022/12/24 07:09:44;;;;;;;34.08;19.95;;;;;;;9.77;74.26;102450.88;5051757;28;20059;-64
2022/12/24 07:12:10;;;;;;;33.88;20.30;;;;;;;9.70;74.55;102454.31;5040430;28;20029;-64
2022/12/24 07:14:36;;;;;;;35.25;20.52;;;;;;;9.93;74.33;102454.56;5044647;28;20471;-64
2022/12/24 07:17:02;;;;;;;32.15;18.13;;;;;;;9.79;74.65;102478.28;5051374;28;20064;-64
2022/12/24 07:19:28;;;;;;;33.42;19.48;;;;;;;9.95;74.25;102490.03;5051531;28;20029;-64
2022/12/24 07:21:55;;;;;;;31.73;18.00;;;;;;;10.02;74.12;102502.59;5050022;28;20045;-64
2022/12/24 07:24:21;;;;;;;29.27;18.88;;;;;;;9.84;74.70;102507.22;5031253;28;20415;-64
2022/12/24 07:26:47;;;;;;;30.73;17.88;;;;;;;9.88;74.52;102511.22;5031222;28;20049;-64
2022/12/24 07:29:14;;;;;;;28.40;17.25;;;;;;;9.81;75.24;102509.34;5031314;28;20116;-64
2022/12/24 07:31:40;;;;;;;35.33;19.80;;;;;;;9.71;75.64;102515.66;5033786;28;20022;-64
2022/12/24 07:34:06;;;;;;;38.47;18.73;;;;;;;9.66;75.75;102528.69;5051024;28;20398;-64
2022/12/24 07:36:32;;;;;;;40.63;20.58;;;;;;;9.62;75.98;102531.84;5051094;28;20021;-64
2022/12/24 07:38:58;;;;;;;33.83;20.13;;;;;;;9.58;76.12;102536.66;5051103;28;20029;-65
2022/12/24 07:41:25;;;;;;;33.53;19.73;;;;;;;9.42;76.49;102532.03;5051255;28;20033;-64
2022/12/24 07:43:51;;;;;;;31.00;18.77;;;;;;;9.56;76.14;102535.13;5051295;28;20031;-64
2022/12/24 07:46:17;;;;;;;31.38;18.98;;;;;;;9.61;76.34;102538.19;5050960;28;20025;-64
2022/12/24 07:48:43;;;;;;;31.17;18.83;;;;;;;9.62;75.90;102526.47;5050856;28;20029;-64
2022/12/24 07:51:09;;;;;;;34.92;19.55;;;;;;;9.81;74.91;102531.59;5051104;28;20104;-64
2022/12/24 07:53:36;;;;;;;33.05;18.35;;;;;;;9.72;75.33;102528.06;5051235;28;20104;-64
2022/12/24 07:56:02;;;;;;;27.02;17.63;;;;;;;9.72;75.32;102528.06;5050862;28;20196;-64
2022/12/24 07:58:29;;;;;;;30.35;19.20;;;;;;;9.78;74.78;102527.41;5051125;28;20163;-64
2022/12/24 08:00:59;;;;;;;31.63;19.63;;;;;;;9.68;75.10;102542.72;5051106;28;20029;-65
2022/12/24 08:03:26;;;;;;;31.23;18.27;;;;;;;9.49;75.49;102550.94;5048753;28;20148;-64
2022/12/24 08:05:53;;;;;;;31.05;18.20;;;;;;;9.43;75.69;102554.25;5035446;28;20025;-64
2022/12/24 08:08:20;;;;;;;34.58;20.02;;;;;;;9.14;77.08;102558.03;5050755;28;20017;-64
2022/12/24 08:10:46;;;;;;;32.92;18.33;;;;;;;9.22;76.95;102552.78;5049402;28;20029;-64
2022/12/24 08:13:13;;;;;;;36.40;20.10;;;;;;;9.37;76.38;102554.88;5038769;28;20437;-64
2022/12/24 08:15:40;;;;;;;33.92;18.92;;;;;;;9.14;76.86;102549.19;5037214;28;20405;-64
2022/12/24 08:18:06;;;;;;;31.02;19.50;;;;;;;9.22;76.56;102544.75;5040717;28;20566;-64
2022/12/24 08:20:32;;;;;;;29.92;18.35;;;;;;;9.16;76.38;102537.38;5053850;28;20033;-64
2022/12/24 08:22:59;;;;;;;32.00;18.60;;;;;;;9.18;76.19;102531.88;5051928;28;20052;-65
2022/12/24 08:25:25;;;;;;;31.02;19.02;;;;;;;9.08;76.65;102528.44;5051158;28;20124;-64
2022/12/24 08:27:51;;;;;;;27.52;18.45;;;;;;;9.15;76.50;102526.81;5054229;28;20057;-64
2022/12/24 08:30:17;;;;;;;30.10;17.80;;;;;;;9.14;76.18;102527.81;5044910;28;20375;-64
2022/12/24 08:32:44;;;;;;;31.45;18.70;;;;;;;9.25;75.71;102530.25;5034361;28;20450;-64
2022/12/24 08:35:10;;;;;;;32.30;18.08;;;;;;;9.58;75.22;102535.81;5048292;28;20029;-64
2022/12/24 08:37:36;;;;;;;26.70;16.40;;;;;;;9.56;75.17;102541.31;5053952;28;20509;-64
2022/12/24 08:40:03;;;;;;;28.10;17.02;;;;;;;9.64;74.95;102544.03;5052600;28;20029;-64
2022/12/24 08:42:29;;;;;;;29.58;17.75;;;;;;;9.60;74.75;102541.81;5054052;28;20122;-64
2022/12/24 08:44:55;;;;;;;28.45;17.10;;;;;;;9.35;75.68;102548.84;5052233;28;20033;-64
2022/12/24 08:47:21;;;;;;;28.92;17.98;;;;;;;9.21;76.06;102542.22;5053766;28;20032;-64
2022/12/24 08:49:47;;;;;;;28.88;16.92;;;;;;;9.11;76.52;102544.19;5051921;28;20060;-64
2022/12/24 08:52:14;;;;;;;25.95;16.13;;;;;;;9.25;76.50;102554.28;5034100;28;20112;-64
2022/12/24 08:54:40;;;;;;;29.55;18.63;;;;;;;9.42;75.69;102563.25;5047963;28;20037;-64
2022/12/24 08:57:06;;;;;;;27.98;17.60;;;;;;;9.35;75.92;102562.22;5053381;28;20029;-64
2022/12/24 08:59:32;;;;;;;30.08;17.48;;;;;;;9.21;76.42;102553.75;5052255;28;20083;-65
2022/12/24 09:01:59;;;;;;;27.70;16.88;;;;;;;9.14;76.53;102558.03;5053917;28;20426;-65
2022/12/24 09:04:25;;;;;;;27.85;18.00;;;;;;;9.19;76.20;102549.56;5051586;28;20021;-64
2022/12/24 09:06:51;;;;;;;28.85;17.85;;;;;;;9.20;75.85;102548.56;5053223;28;20542;-65
2022/12/24 09:09:17;;;;;;;29.83;18.85;;;;;;;9.12;75.60;102549.34;5052077;28;20033;-65
2022/12/24 09:11:44;;;;;;;31.25;19.58;;;;;;;9.15;75.70;102541.00;5045897;28;20034;-65
2022/12/24 09:14:10;;;;;;;36.53;19.42;;;;;;;9.00;76.37;102547.94;5040828;28;20459;-64
2022/12/24 09:16:37;;;;;;;33.33;20.38;;;;;;;8.92;76.19;102538.00;5043094;28;20087;-64
2022/12/24 09:19:03;;;;;;;28.92;17.90;;;;;;;9.10;75.71;102537.97;5038996;28;20033;-65
2022/12/24 09:21:30;;;;;;;30.92;17.80;;;;;;;9.09;75.67;102546.16;5051839;28;20558;-64
2022/12/24 09:24:00;;;;;;;34.70;20.27;;;;;;;9.04;75.43;102546.59;5051098;28;20045;-65
2022/12/24 09:26:28;;;;;;;30.17;19.05;;;;;;;8.92;76.00;102550.50;5052842;28;20021;-64
2022/12/24 09:28:57;;;;;;;29.23;17.40;;;;;;;8.96;75.88;102549.22;5051128;28;20025;-65
2022/12/24 09:31:24;;;;;;;29.45;18.20;;;;;;;8.85;76.16;102552.94;5053040;28;20085;-64
2022/12/24 09:33:50;;;;;;;31.27;17.35;;;;;;;8.64;77.31;102558.59;5051499;28;20094;-64
2022/12/24 09:36:18;;;;;;;34.65;19.13;;;;;;;8.51;77.95;102563.47;5053200;28;20029;-64
2022/12/24 09:38:45;;;;;;;30.90;19.30;;;;;;;8.29;79.12;102569.19;5050928;28;20064;-64
2022/12/24 09:41:33;;;;;;;32.83;20.27;;;;;;;8.21;79.72;102572.56;5052944;28;20471;-65
2022/12/24 09:44:07;;;;;;;34.92;20.75;;;;;;;7.84;81.25;102567.28;5020582;28;20106;-64
2022/12/24 09:46:42;;;;;;;37.88;22.90;;;;;;;8.04;81.18;102560.03;5049100;28;20059;-65
2022/12/24 09:49:16;;;;;;;36.42;21.23;;;;;;;8.02;81.41;102562.84;5043821;28;20039;-65
2022/12/24 09:51:49;;;;;;;35.70;21.08;;;;;;;8.16;80.60;102565.03;5052687;28;20112;-64
2022/12/24 09:54:39;;;;;;;32.30;20.58;;;;;;;7.97;81.26;102549.09;5051545;28;20056;-64
2022/12/24 09:57:19;;;;;;;34.70;20.13;;;;;;;8.18;80.46;102555.03;5052417;28;20449;-64
2022/12/24 09:59:46;;;;;;;39.45;21.77;;;;;;;8.12;80.15;102544.97;5050098;28;20028;-64
2022/12/24 10:02:19;;;;;;;33.20;19.58;;;;;;;8.01;80.84;102550.50;5052402;28;20017;-65
2022/12/24 10:04:47;;;;;;;36.03;20.58;;;;;;;8.17;80.35;102545.38;5050831;28;20029;-65
2022/12/24 10:07:49;;;;;;;33.05;20.60;;;;;;;8.11;79.94;102550.47;5052387;28;20032;-65
2022/12/24 10:10:24;;;;;;;33.50;20.45;;;;;;;8.19;79.38;102556.72;5018813;28;20040;-65
2022/12/24 10:13:01;;;;;;;31.55;20.60;;;;;;;8.10;79.80;102564.75;5035919;28;20143;-64
2022/12/24 10:15:34;;;;;;;35.72;20.80;;;;;;;7.96;80.57;102567.94;5050663;28;20045;-65
2022/12/24 10:18:48;;;;;;;37.40;22.80;;;;;;;8.05;80.51;102577.69;5032563;28;20515;-64
2022/12/24 10:21:45;;;;;;;37.55;21.60;;;;;;;7.87;81.00;102585.63;5014073;28;20060;-64
2022/12/24 10:24:39;;;;;;;43.45;22.73;;;;;;;7.92;81.31;102578.88;5038021;28;20427;-64
2022/12/24 10:27:14;;;;;;;39.10;24.17;;;;;;;7.90;81.26;102588.84;5051874;28;20052;-64
2022/12/24 10:29:48;;;;;;;46.67;25.15;;;;;;;7.99;80.52;102596.94;5050303;28;20032;-64
2022/12/24 10:32:20;;;;;;;43.00;24.00;;;;;;;7.85;81.07;102601.78;5052275;28;20033;-65
2022/12/24 10:35:01;;;;;;;51.90;27.05;;;;;;;7.85;81.71;102603.59;5049984;28;20364;-65
2022/12/24 10:37:28;;;;;;;51.80;28.38;;;;;;;7.93;81.25;102609.03;5050811;28;20089;-65
2022/12/24 10:39:57;;;;;;;52.33;28.75;;;;;;;7.96;81.36;102616.75;5051577;28;20059;-65
2022/12/24 10:42:30;;;;;;;52.67;29.52;;;;;;;7.84;81.91;102607.25;5051913;28;20037;-65
2022/12/24 10:45:02;;;;;;;49.47;28.83;;;;;;;7.91;81.72;102603.03;5049651;28;20023;-65
2022/12/24 10:47:33;;;;;;;60.45;29.55;;;;;;;7.97;81.79;102604.25;5049448;28;20036;-65
2022/12/24 10:50:16;;;;;;;50.53;26.95;;;;;;;8.06;80.98;102598.91;5031769;28;20025;-65
2022/12/24 10:52:44;;;;;;;46.58;25.75;;;;;;;8.06;80.71;102595.41;5045528;28;20605;-64
2022/12/24 10:55:23;;;;;;;46.47;25.02;;;;;;;8.10;80.49;102602.09;5051766;28;20029;-64
2022/12/24 10:58:15;;;;;;;43.78;23.23;;;;;;;7.90;80.89;102612.00;5050005;28;20021;-64
2022/12/24 11:00:41;;;;;;;46.08;24.08;;;;;;;7.85;80.93;102611.59;5041077;28;20041;-65
2022/12/24 11:03:23;;;;;;;41.05;21.80;;;;;;;7.82;80.90;102606.53;5049842;28;20112;-64
2022/12/24 11:06:04;;;;;;;40.20;22.42;;;;;;;7.74;81.36;102609.09;5051500;28;20037;-64
2022/12/24 11:08:32;;;;;;;36.25;22.33;;;;;;;7.68;81.50;102606.03;5049142;28;20119;-65
2022/12/24 11:11:02;;;;;;;44.00;22.67;;;;;;;7.45;82.36;102604.69;5049972;28;20036;-65
2022/12/24 11:13:31;;;;;;;42.45;23.23;;;;;;;7.47;81.95;102610.69;5048522;28;20499;-65
2022/12/24 11:16:14;;;;;;;36.38;21.77;;;;;;;7.33;82.71;102611.16;5051282;28;20040;-65
2022/12/24 11:18:48;;;;;;;42.20;22.48;;;;;;;7.31;82.65;102607.75;5050053;28;20494;-64
2022/12/24 11:21:27;;;;;;;43.97;23.83;;;;;;;7.17;83.89;102614.38;5051461;28;20073;-64
2022/12/24 11:23:57;;;;;;;44.42;24.92;;;;;;;7.15;83.73;102617.16;5043200;28;20569;-65
2022/12/24 11:26:26;;;;;;;43.97;25.17;;;;;;;7.07;84.03;102627.66;5031552;28;20021;-65
2022/12/24 11:29:18;;;;;;;47.33;24.98;;;;;;;7.15;84.06;102627.81;5050669;28;20021;-65
2022/12/24 11:31:45;;;;;;;46.60;25.02;;;;;;;7.20;84.16;102623.88;5049735;28;20032;-65
2022/12/24 11:34:22;;;;;;;46.05;26.52;;;;;;;7.10;84.44;102630.03;5051235;28;20025;-65